sensor_id;sensor_type;location;lat;lon;timestamp;temperature;humidity
31074;DHT22;17730;53.552;9.940;2023-02-28T00:00:07;4.90;98.80
31074;DHT22;17730;53.552;9.940;2023-02-28T00:02:39;4.90;99.00
31074;DHT22;17730;53.552;9.940;2023-02-28T00:05:05;4.90;99.10
31074;DHT22;17730;53.552;9.940;2023-02-28T00:07:31;4.90;99.10
31074;DHT22;17730;53.552;9.940;2023-02-28T00:09:57;4.90;99.10
31074;DHT22;17730;53.552;9.940;2023-02-28T00:12:22;4.90;99.20
31074;DHT22;17730;53.552;9.940;2023-02-28T00:14:48;4.80;99.20
31074;DHT22;17730;53.552;9.940;2023-02-28T00:17:14;4.80;99.30
31074;DHT22;17730;53.552;9.940;2023-02-28T00:19:39;4.70;99.20
31074;DHT22;17730;53.552;9.940;2023-02-28T00:22:05;4.70;99.30
31074;DHT22;17730;53.552;9.940;2023-02-28T00:24:30;4.60;99.50
31074;DHT22;17730;53.552;9.940;2023-02-28T00:26:56;4.60;99.60
31074;DHT22;17730;53.552;9.940;2023-02-28T00:29:21;4.50;99.70
31074;DHT22;17730;53.552;9.940;2023-02-28T00:31:47;4.50;99.80
31074;DHT22;17730;53.552;9.940;2023-02-28T00:34:12;4.50;99.90
31074;DHT22;17730;53.552;9.940;2023-02-28T00:36:38;4.40;99.80
31074;DHT22;17730;53.552;9.940;2023-02-28T00:39:03;4.40;99.90
31074;DHT22;17730;53.552;9.940;2023-02-28T00:41:29;4.40;99.90
31074;DHT22;17730;53.552;9.940;2023-02-28T00:43:54;4.30;99.90
31074;DHT22;17730;53.552;9.940;2023-02-28T00:46:20;4.30;99.90
31074;DHT22;17730;53.552;9.940;2023-02-28T00:48:45;4.30;99.90
31074;DHT22;17730;53.552;9.940;2023-02-28T00:51:10;4.30;99.90
31074;DHT22;17730;53.552;9.940;2023-02-28T00:53:36;4.30;99.90
31074;DHT22;17730;53.552;9.940;2023-02-28T00:56:02;4.40;99.90
31074;DHT22;17730;53.552;9.940;2023-02-28T00:58:27;4.40;99.90
31074;DHT22;17730;53.552;9.940;2023-02-28T01:00:53;4.30;99.90
31074;DHT22;17730;53.552;9.940;2023-02-28T01:03:19;4.30;99.90
31074;DHT22;17730;53.552;9.940;2023-02-28T01:05:45;4.30;99.90
31074;DHT22;17730;53.552;9.940;2023-02-28T01:08:11;4.30;99.90
31074;DHT22;17730;53.552;9.940;2023-02-28T01:10:37;4.30;99.90
31074;DHT22;17730;53.552;9.940;2023-02-28T01:13:03;4.30;99.90
31074;DHT22;17730;53.552;9.940;2023-02-28T01:15:29;4.30;99.90
31074;DHT22;17730;53.552;9.940;2023-02-28T01:17:54;4.30;99.90
31074;DHT22;17730;53.552;9.940;2023-02-28T01:20:20;4.30;99.90
31074;DHT22;17730;53.552;9.940;2023-02-28T01:22:45;4.30;99.90
31074;DHT22;17730;53.552;9.940;2023-02-28T01:25:12;4.30;99.90
31074;DHT22;17730;53.552;9.940;2023-02-28T01:27:37;4.20;99.90
31074;DHT22;17730;53.552;9.940;2023-02-28T01:30:05;4.20;99.90
31074;DHT22;17730;53.552;9.940;2023-02-28T01:32:30;4.20;99.90
31074;DHT22;17730;53.552;9.940;2023-02-28T01:34:56;4.20;99.90
31074;DHT22;17730;53.552;9.940;2023-02-28T01:37:21;4.20;99.90
31074;DHT22;17730;53.552;9.940;2023-02-28T01:39:47;4.20;99.90
31074;DHT22;17730;53.552;9.940;2023-02-28T01:42:12;4.20;99.90
31074;DHT22;17730;53.552;9.940;2023-02-28T01:47:22;4.30;99.90
31074;DHT22;17730;53.552;9.940;2023-02-28T01:49:49;4.30;99.90
31074;DHT22;17730;53.552;9.940;2023-02-28T01:52:16;4.30;99.90
31074;DHT22;17730;53.552;9.940;2023-02-28T01:54:44;4.30;99.90
31074;DHT22;17730;53.552;9.940;2023-02-28T01:57:14;4.30;99.90
31074;DHT22;17730;53.552;9.940;2023-02-28T01:59:50;4.40;99.90
31074;DHT22;17730;53.552;9.940;2023-02-28T02:02:18;4.40;99.90
31074;DHT22;17730;53.552;9.940;2023-02-28T02:04:54;4.40;99.90
31074;DHT22;17730;53.552;9.940;2023-02-28T02:07:20;4.40;99.90
31074;DHT22;17730;53.552;9.940;2023-02-28T02:09:46;4.30;99.90
31074;DHT22;17730;53.552;9.940;2023-02-28T02:12:17;4.30;99.90
31074;DHT22;17730;53.552;9.940;2023-02-28T02:17:19;4.20;99.90
31074;DHT22;17730;53.552;9.940;2023-02-28T02:30:18;4.10;99.90
31074;DHT22;17730;53.552;9.940;2023-02-28T02:40:30;3.90;99.90
31074;DHT22;17730;53.552;9.940;2023-02-28T02:43:12;3.90;99.90
31074;DHT22;17730;53.552;9.940;2023-02-28T02:48:08;3.70;99.90
31074;DHT22;17730;53.552;9.940;2023-02-28T02:50:37;3.60;99.90
31074;DHT22;17730;53.552;9.940;2023-02-28T02:53:03;3.60;99.90
31074;DHT22;17730;53.552;9.940;2023-02-28T02:55:29;3.50;99.90
31074;DHT22;17730;53.552;9.940;2023-02-28T02:58:01;3.40;99.90
31074;DHT22;17730;53.552;9.940;2023-02-28T03:00:32;3.30;99.90
31074;DHT22;17730;53.552;9.940;2023-02-28T03:02:59;3.20;99.90
31074;DHT22;17730;53.552;9.940;2023-02-28T03:05:26;3.20;99.90
31074;DHT22;17730;53.552;9.940;2023-02-28T03:07:53;3.10;99.90
31074;DHT22;17730;53.552;9.940;2023-02-28T03:10:26;3.00;99.90
31074;DHT22;17730;53.552;9.940;2023-02-28T03:12:54;2.90;99.90
31074;DHT22;17730;53.552;9.940;2023-02-28T03:15:27;2.80;99.90
31074;DHT22;17730;53.552;9.940;2023-02-28T03:18:01;2.80;99.90
31074;DHT22;17730;53.552;9.940;2023-02-28T03:20:50;2.70;99.90
31074;DHT22;17730;53.552;9.940;2023-02-28T03:23:19;2.60;99.90
31074;DHT22;17730;53.552;9.940;2023-02-28T03:28:16;2.60;99.90
31074;DHT22;17730;53.552;9.940;2023-02-28T03:30:52;2.60;99.90
31074;DHT22;17730;53.552;9.940;2023-02-28T03:33:27;2.70;99.90
31074;DHT22;17730;53.552;9.940;2023-02-28T03:35:55;2.70;99.90
31074;DHT22;17730;53.552;9.940;2023-02-28T03:41:06;2.40;99.90
31074;DHT22;17730;53.552;9.940;2023-02-28T03:43:36;2.30;99.90
31074;DHT22;17730;53.552;9.940;2023-02-28T03:46:04;2.20;99.90
31074;DHT22;17730;53.552;9.940;2023-02-28T03:48:34;2.10;99.90
31074;DHT22;17730;53.552;9.940;2023-02-28T03:51:02;2.10;99.90
31074;DHT22;17730;53.552;9.940;2023-02-28T03:53:39;2.10;99.90
31074;DHT22;17730;53.552;9.940;2023-02-28T03:56:07;2.00;99.90
31074;DHT22;17730;53.552;9.940;2023-02-28T04:01:26;2.00;99.90
31074;DHT22;17730;53.552;9.940;2023-02-28T04:03:53;1.90;99.90
31074;DHT22;17730;53.552;9.940;2023-02-28T04:06:20;1.80;99.90
31074;DHT22;17730;53.552;9.940;2023-02-28T04:08:46;1.80;99.90
31074;DHT22;17730;53.552;9.940;2023-02-28T04:11:22;1.70;99.90
31074;DHT22;17730;53.552;9.940;2023-02-28T04:13:47;1.70;99.90
31074;DHT22;17730;53.552;9.940;2023-02-28T04:16:13;1.60;99.90
31074;DHT22;17730;53.552;9.940;2023-02-28T04:18:39;1.70;99.90
31074;DHT22;17730;53.552;9.940;2023-02-28T04:21:05;1.70;99.90
31074;DHT22;17730;53.552;9.940;2023-02-28T04:23:31;1.60;99.90
31074;DHT22;17730;53.552;9.940;2023-02-28T04:25:56;1.60;99.90
31074;DHT22;17730;53.552;9.940;2023-02-28T04:28:22;1.60;99.90
31074;DHT22;17730;53.552;9.940;2023-02-28T04:30:47;1.50;99.90
31074;DHT22;17730;53.552;9.940;2023-02-28T04:33:12;1.50;99.90
31074;DHT22;17730;53.552;9.940;2023-02-28T04:35:38;1.60;99.90
31074;DHT22;17730;53.552;9.940;2023-02-28T04:38:04;1.60;99.90
31074;DHT22;17730;53.552;9.940;2023-02-28T04:40:29;1.50;99.90
31074;DHT22;17730;53.552;9.940;2023-02-28T04:42:54;1.40;99.90
31074;DHT22;17730;53.552;9.940;2023-02-28T04:45:20;1.30;99.90
31074;DHT22;17730;53.552;9.940;2023-02-28T04:47:45;1.30;99.90
31074;DHT22;17730;53.552;9.940;2023-02-28T04:50:11;1.20;99.90
31074;DHT22;17730;53.552;9.940;2023-02-28T04:52:36;1.20;99.90
31074;DHT22;17730;53.552;9.940;2023-02-28T04:55:02;1.10;99.90
31074;DHT22;17730;53.552;9.940;2023-02-28T04:57:27;1.10;99.90
31074;DHT22;17730;53.552;9.940;2023-02-28T04:59:53;1.00;99.90
31074;DHT22;17730;53.552;9.940;2023-02-28T05:02:18;1.10;99.90
31074;DHT22;17730;53.552;9.940;2023-02-28T05:04:45;1.10;99.90
31074;DHT22;17730;53.552;9.940;2023-02-28T05:07:10;1.20;99.90
31074;DHT22;17730;53.552;9.940;2023-02-28T05:09:36;1.10;99.90
31074;DHT22;17730;53.552;9.940;2023-02-28T05:12:01;1.10;99.90
31074;DHT22;17730;53.552;9.940;2023-02-28T05:14:27;1.00;99.90
31074;DHT22;17730;53.552;9.940;2023-02-28T05:16:52;1.00;99.90
31074;DHT22;17730;53.552;9.940;2023-02-28T05:19:18;1.00;99.90
31074;DHT22;17730;53.552;9.940;2023-02-28T05:21:50;1.00;99.90
31074;DHT22;17730;53.552;9.940;2023-02-28T05:24:16;1.00;99.90
31074;DHT22;17730;53.552;9.940;2023-02-28T05:26:48;1.00;99.90
31074;DHT22;17730;53.552;9.940;2023-02-28T05:29:14;1.00;99.90
31074;DHT22;17730;53.552;9.940;2023-02-28T05:31:39;1.00;99.90
31074;DHT22;17730;53.552;9.940;2023-02-28T05:34:04;1.00;99.90
31074;DHT22;17730;53.552;9.940;2023-02-28T05:36:30;1.00;99.90
31074;DHT22;17730;53.552;9.940;2023-02-28T05:38:56;1.00;99.90
31074;DHT22;17730;53.552;9.940;2023-02-28T05:41:21;0.90;99.90
31074;DHT22;17730;53.552;9.940;2023-02-28T05:43:47;0.90;99.90
31074;DHT22;17730;53.552;9.940;2023-02-28T05:46:13;0.90;99.90
31074;DHT22;17730;53.552;9.940;2023-02-28T05:48:39;0.90;99.90
31074;DHT22;17730;53.552;9.940;2023-02-28T05:51:05;0.80;99.90
31074;DHT22;17730;53.552;9.940;2023-02-28T05:53:31;0.80;99.90
31074;DHT22;17730;53.552;9.940;2023-02-28T05:55:56;0.80;99.90
31074;DHT22;17730;53.552;9.940;2023-02-28T05:58:22;0.70;99.90
31074;DHT22;17730;53.552;9.940;2023-02-28T06:00:48;0.70;99.90
31074;DHT22;17730;53.552;9.940;2023-02-28T06:03:13;0.70;99.90
31074;DHT22;17730;53.552;9.940;2023-02-28T06:05:38;0.70;99.90
31074;DHT22;17730;53.552;9.940;2023-02-28T06:08:04;0.70;99.90
31074;DHT22;17730;53.552;9.940;2023-02-28T06:10:32;0.70;99.90
31074;DHT22;17730;53.552;9.940;2023-02-28T06:13:01;0.70;99.90
31074;DHT22;17730;53.552;9.940;2023-02-28T06:15:30;0.70;99.90
31074;DHT22;17730;53.552;9.940;2023-02-28T06:17:56;0.70;99.90
31074;DHT22;17730;53.552;9.940;2023-02-28T06:20:22;0.70;99.90
31074;DHT22;17730;53.552;9.940;2023-02-28T06:22:48;0.70;99.90
31074;DHT22;17730;53.552;9.940;2023-02-28T06:25:13;0.70;99.90
31074;DHT22;17730;53.552;9.940;2023-02-28T06:27:38;0.80;99.90
31074;DHT22;17730;53.552;9.940;2023-02-28T06:30:04;0.80;99.90
31074;DHT22;17730;53.552;9.940;2023-02-28T06:32:30;0.80;99.90
31074;DHT22;17730;53.552;9.940;2023-02-28T06:34:55;0.90;99.90
31074;DHT22;17730;53.552;9.940;2023-02-28T06:37:22;0.90;99.90
31074;DHT22;17730;53.552;9.940;2023-02-28T06:39:51;0.90;99.90
31074;DHT22;17730;53.552;9.940;2023-02-28T06:42:16;0.90;99.90
31074;DHT22;17730;53.552;9.940;2023-02-28T06:44:42;1.00;99.90
31074;DHT22;17730;53.552;9.940;2023-02-28T06:47:08;1.00;99.90
31074;DHT22;17730;53.552;9.940;2023-02-28T06:49:34;1.10;99.90
31074;DHT22;17730;53.552;9.940;2023-02-28T06:52:00;1.10;99.90
31074;DHT22;17730;53.552;9.940;2023-02-28T06:54:26;1.10;99.90
31074;DHT22;17730;53.552;9.940;2023-02-28T06:56:52;1.10;99.90
31074;DHT22;17730;53.552;9.940;2023-02-28T06:59:19;1.20;99.90
31074;DHT22;17730;53.552;9.940;2023-02-28T07:01:45;1.20;99.90
31074;DHT22;17730;53.552;9.940;2023-02-28T07:04:11;1.20;99.90
31074;DHT22;17730;53.552;9.940;2023-02-28T07:06:38;1.20;99.90
31074;DHT22;17730;53.552;9.940;2023-02-28T07:09:03;1.30;99.90
31074;DHT22;17730;53.552;9.940;2023-02-28T07:11:29;1.30;99.90
31074;DHT22;17730;53.552;9.940;2023-02-28T07:13:55;1.30;99.90
31074;DHT22;17730;53.552;9.940;2023-02-28T07:16:21;1.40;99.90
31074;DHT22;17730;53.552;9.940;2023-02-28T07:18:47;1.50;99.90
31074;DHT22;17730;53.552;9.940;2023-02-28T07:21:13;1.60;99.90
31074;DHT22;17730;53.552;9.940;2023-02-28T07:23:38;1.70;99.90
31074;DHT22;17730;53.552;9.940;2023-02-28T07:26:04;1.80;99.90
31074;DHT22;17730;53.552;9.940;2023-02-28T07:28:30;1.80;99.90
31074;DHT22;17730;53.552;9.940;2023-02-28T07:30:56;1.90;99.90
31074;DHT22;17730;53.552;9.940;2023-02-28T07:33:21;2.00;99.90
31074;DHT22;17730;53.552;9.940;2023-02-28T07:35:47;2.20;99.90
31074;DHT22;17730;53.552;9.940;2023-02-28T07:38:12;2.40;99.90
31074;DHT22;17730;53.552;9.940;2023-02-28T07:40:38;2.50;99.90
31074;DHT22;17730;53.552;9.940;2023-02-28T07:43:04;2.70;99.90
31074;DHT22;17730;53.552;9.940;2023-02-28T07:45:30;2.90;99.90
31074;DHT22;17730;53.552;9.940;2023-02-28T07:47:56;3.10;99.90
31074;DHT22;17730;53.552;9.940;2023-02-28T07:50:22;3.30;99.90
31074;DHT22;17730;53.552;9.940;2023-02-28T07:52:48;3.50;99.90
31074;DHT22;17730;53.552;9.940;2023-02-28T07:55:13;3.70;99.90
31074;DHT22;17730;53.552;9.940;2023-02-28T07:57:40;3.90;99.90
31074;DHT22;17730;53.552;9.940;2023-02-28T08:00:08;4.00;99.90
31074;DHT22;17730;53.552;9.940;2023-02-28T08:02:37;4.30;99.90
31074;DHT22;17730;53.552;9.940;2023-02-28T08:05:03;4.50;99.90
31074;DHT22;17730;53.552;9.940;2023-02-28T08:07:29;4.60;99.90
31074;DHT22;17730;53.552;9.940;2023-02-28T08:09:54;4.80;99.90
31074;DHT22;17730;53.552;9.940;2023-02-28T08:12:20;5.00;99.90
31074;DHT22;17730;53.552;9.940;2023-02-28T08:14:45;5.20;99.90
31074;DHT22;17730;53.552;9.940;2023-02-28T08:17:11;5.40;99.90
31074;DHT22;17730;53.552;9.940;2023-02-28T08:19:37;5.60;99.90
31074;DHT22;17730;53.552;9.940;2023-02-28T08:22:02;5.70;99.90
31074;DHT22;17730;53.552;9.940;2023-02-28T08:24:28;5.80;99.90
31074;DHT22;17730;53.552;9.940;2023-02-28T08:26:54;6.00;99.90
31074;DHT22;17730;53.552;9.940;2023-02-28T08:29:19;6.20;99.90
31074;DHT22;17730;53.552;9.940;2023-02-28T08:31:44;6.40;99.90
31074;DHT22;17730;53.552;9.940;2023-02-28T08:34:12;6.60;99.90
31074;DHT22;17730;53.552;9.940;2023-02-28T08:36:38;6.70;99.90
31074;DHT22;17730;53.552;9.940;2023-02-28T08:39:04;6.80;99.90
31074;DHT22;17730;53.552;9.940;2023-02-28T08:41:30;6.90;98.90
31074;DHT22;17730;53.552;9.940;2023-02-28T08:43:55;6.80;97.80
31074;DHT22;17730;53.552;9.940;2023-02-28T08:46:21;6.70;96.60
31074;DHT22;17730;53.552;9.940;2023-02-28T08:48:46;6.70;96.10
31074;DHT22;17730;53.552;9.940;2023-02-28T08:51:13;6.70;95.70
31074;DHT22;17730;53.552;9.940;2023-02-28T08:53:39;6.80;95.10
31074;DHT22;17730;53.552;9.940;2023-02-28T08:56:08;6.90;94.80
31074;DHT22;17730;53.552;9.940;2023-02-28T08:58:34;7.10;94.60
31074;DHT22;17730;53.552;9.940;2023-02-28T09:01:00;7.30;94.30
31074;DHT22;17730;53.552;9.940;2023-02-28T09:03:32;7.50;93.00
31074;DHT22;17730;53.552;9.940;2023-02-28T09:05:58;7.70;92.30
31074;DHT22;17730;53.552;9.940;2023-02-28T09:08:24;7.80;90.90
31074;DHT22;17730;53.552;9.940;2023-02-28T09:10:50;7.80;90.60
31074;DHT22;17730;53.552;9.940;2023-02-28T09:13:17;8.00;90.20
31074;DHT22;17730;53.552;9.940;2023-02-28T09:15:43;8.10;89.50
31074;DHT22;17730;53.552;9.940;2023-02-28T09:18:08;8.20;88.50
31074;DHT22;17730;53.552;9.940;2023-02-28T09:20:35;8.10;86.30
31074;DHT22;17730;53.552;9.940;2023-02-28T09:23:02;8.10;84.20
31074;DHT22;17730;53.552;9.940;2023-02-28T09:25:27;8.00;83.60
31074;DHT22;17730;53.552;9.940;2023-02-28T09:27:53;8.00;84.30
31074;DHT22;17730;53.552;9.940;2023-02-28T09:30:18;8.10;81.30
31074;DHT22;17730;53.552;9.940;2023-02-28T09:32:43;7.90;80.60
31074;DHT22;17730;53.552;9.940;2023-02-28T09:35:23;8.10;80.80
31074;DHT22;17730;53.552;9.940;2023-02-28T09:37:50;8.30;79.00
31074;DHT22;17730;53.552;9.940;2023-02-28T09:40:16;8.20;75.90
31074;DHT22;17730;53.552;9.940;2023-02-28T09:42:44;8.40;75.00
31074;DHT22;17730;53.552;9.940;2023-02-28T09:45:22;8.50;68.50
31074;DHT22;17730;53.552;9.940;2023-02-28T09:47:48;8.70;67.90
31074;DHT22;17730;53.552;9.940;2023-02-28T09:52:51;8.60;62.70
31074;DHT22;17730;53.552;9.940;2023-02-28T09:57:46;8.20;60.30
31074;DHT22;17730;53.552;9.940;2023-02-28T10:05:24;8.30;62.40
31074;DHT22;17730;53.552;9.940;2023-02-28T10:13:03;8.90;60.60
31074;DHT22;17730;53.552;9.940;2023-02-28T10:15:30;9.10;60.20
31074;DHT22;17730;53.552;9.940;2023-02-28T10:17:57;9.00;61.20
31074;DHT22;17730;53.552;9.940;2023-02-28T10:20:24;9.20;61.30
31074;DHT22;17730;53.552;9.940;2023-02-28T10:23:13;9.50;60.90
31074;DHT22;17730;53.552;9.940;2023-02-28T10:25:41;9.80;59.50
31074;DHT22;17730;53.552;9.940;2023-02-28T10:28:14;10.00;58.60
31074;DHT22;17730;53.552;9.940;2023-02-28T10:30:44;10.10;58.50
31074;DHT22;17730;53.552;9.940;2023-02-28T10:33:16;10.30;58.40
31074;DHT22;17730;53.552;9.940;2023-02-28T10:35:43;10.20;58.30
31074;DHT22;17730;53.552;9.940;2023-02-28T10:38:14;10.10;58.80
31074;DHT22;17730;53.552;9.940;2023-02-28T10:40:40;10.10;59.30
31074;DHT22;17730;53.552;9.940;2023-02-28T10:43:17;10.20;59.60
31074;DHT22;17730;53.552;9.940;2023-02-28T10:45:54;10.30;59.90
31074;DHT22;17730;53.552;9.940;2023-02-28T10:50:50;10.40;58.90
31074;DHT22;17730;53.552;9.940;2023-02-28T10:56:23;10.40;58.90
31074;DHT22;17730;53.552;9.940;2023-02-28T10:58:58;9.90;58.90
31074;DHT22;17730;53.552;9.940;2023-02-28T11:03:50;9.60;59.60
31074;DHT22;17730;53.552;9.940;2023-02-28T11:06:23;9.90;58.70
31074;DHT22;17730;53.552;9.940;2023-02-28T11:08:58;9.80;58.10
31074;DHT22;17730;53.552;9.940;2023-02-28T11:11:25;10.00;58.30
31074;DHT22;17730;53.552;9.940;2023-02-28T11:13:51;10.20;57.40
31074;DHT22;17730;53.552;9.940;2023-02-28T11:16:18;10.10;56.80
31074;DHT22;17730;53.552;9.940;2023-02-28T11:21:09;10.00;57.90
31074;DHT22;17730;53.552;9.940;2023-02-28T11:23:41;10.10;57.40
31074;DHT22;17730;53.552;9.940;2023-02-28T11:26:06;10.20;55.90
31074;DHT22;17730;53.552;9.940;2023-02-28T11:28:37;10.30;55.30
31074;DHT22;17730;53.552;9.940;2023-02-28T11:33:53;10.50;54.80
31074;DHT22;17730;53.552;9.940;2023-02-28T11:36:23;10.60;54.90
31074;DHT22;17730;53.552;9.940;2023-02-28T11:38:50;10.70;54.50
31074;DHT22;17730;53.552;9.940;2023-02-28T11:41:37;10.70;53.60
31074;DHT22;17730;53.552;9.940;2023-02-28T11:46:35;10.50;53.30
31074;DHT22;17730;53.552;9.940;2023-02-28T11:51:34;10.80;52.90
31074;DHT22;17730;53.552;9.940;2023-02-28T11:59:22;10.60;53.10
31074;DHT22;17730;53.552;9.940;2023-02-28T12:04:24;10.90;52.30
31074;DHT22;17730;53.552;9.940;2023-02-28T12:06:54;11.00;52.30
31074;DHT22;17730;53.552;9.940;2023-02-28T12:20:24;11.00;50.80
31074;DHT22;17730;53.552;9.940;2023-02-28T12:25:38;11.00;49.90
31074;DHT22;17730;53.552;9.940;2023-02-28T12:28:10;11.00;49.70
31074;DHT22;17730;53.552;9.940;2023-02-28T12:30:38;10.90;49.50
31074;DHT22;17730;53.552;9.940;2023-02-28T12:33:13;11.00;49.60
31074;DHT22;17730;53.552;9.940;2023-02-28T12:38:12;10.90;49.60
31074;DHT22;17730;53.552;9.940;2023-02-28T12:43:25;10.90;49.30
31074;DHT22;17730;53.552;9.940;2023-02-28T12:45:56;11.00;49.70
31074;DHT22;17730;53.552;9.940;2023-02-28T12:48:31;11.00;49.30
31074;DHT22;17730;53.552;9.940;2023-02-28T12:50:57;11.00;49.00
31074;DHT22;17730;53.552;9.940;2023-02-28T12:58:39;10.80;49.60
31074;DHT22;17730;53.552;9.940;2023-02-28T13:03:52;10.70;49.10
31074;DHT22;17730;53.552;9.940;2023-02-28T13:06:28;10.60;50.10
31074;DHT22;17730;53.552;9.940;2023-02-28T13:14:06;10.50;50.40
31074;DHT22;17730;53.552;9.940;2023-02-28T13:17:01;10.50;50.80
31074;DHT22;17730;53.552;9.940;2023-02-28T13:19:29;10.70;50.90
31074;DHT22;17730;53.552;9.940;2023-02-28T13:21:55;10.60;50.10
31074;DHT22;17730;53.552;9.940;2023-02-28T13:24:38;10.60;49.70
31074;DHT22;17730;53.552;9.940;2023-02-28T13:29:30;10.90;49.70
31074;DHT22;17730;53.552;9.940;2023-02-28T13:34:33;10.80;49.30
31074;DHT22;17730;53.552;9.940;2023-02-28T13:42:33;10.70;49.60
31074;DHT22;17730;53.552;9.940;2023-02-28T13:47:27;10.80;49.50
31074;DHT22;17730;53.552;9.940;2023-02-28T13:49:54;10.90;48.80
31074;DHT22;17730;53.552;9.940;2023-02-28T13:52:20;11.00;48.80
31074;DHT22;17730;53.552;9.940;2023-02-28T13:54:52;11.00;48.90
31074;DHT22;17730;53.552;9.940;2023-02-28T13:57:30;11.00;48.70
31074;DHT22;17730;53.552;9.940;2023-02-28T14:05:15;10.90;48.70
31074;DHT22;17730;53.552;9.940;2023-02-28T14:07:46;10.90;48.10
31074;DHT22;17730;53.552;9.940;2023-02-28T14:10:20;10.80;48.00
31074;DHT22;17730;53.552;9.940;2023-02-28T14:18:13;10.60;48.30
31074;DHT22;17730;53.552;9.940;2023-02-28T14:20:40;10.40;48.40
31074;DHT22;17730;53.552;9.940;2023-02-28T14:23:12;10.40;48.20
31074;DHT22;17730;53.552;9.940;2023-02-28T14:28:40;10.30;48.80
31074;DHT22;17730;53.552;9.940;2023-02-28T14:31:10;10.10;49.20
31074;DHT22;17730;53.552;9.940;2023-02-28T14:33:54;10.20;49.70
31074;DHT22;17730;53.552;9.940;2023-02-28T14:36:27;10.10;49.30
31074;DHT22;17730;53.552;9.940;2023-02-28T14:38:57;10.20;49.10
31074;DHT22;17730;53.552;9.940;2023-02-28T14:43:57;10.10;49.60
31074;DHT22;17730;53.552;9.940;2023-02-28T14:46:25;10.20;49.60
31074;DHT22;17730;53.552;9.940;2023-02-28T14:48:52;10.10;49.20
31074;DHT22;17730;53.552;9.940;2023-02-28T14:51:18;9.80;49.90
31074;DHT22;17730;53.552;9.940;2023-02-28T14:53:44;9.70;50.30
31074;DHT22;17730;53.552;9.940;2023-02-28T14:56:19;9.60;50.80
31074;DHT22;17730;53.552;9.940;2023-02-28T14:58:50;9.70;50.60
31074;DHT22;17730;53.552;9.940;2023-02-28T15:01:18;9.70;50.60
31074;DHT22;17730;53.552;9.940;2023-02-28T15:03:44;9.70;50.40
31074;DHT22;17730;53.552;9.940;2023-02-28T15:06:14;9.70;50.60
31074;DHT22;17730;53.552;9.940;2023-02-28T15:08:40;9.70;50.60
31074;DHT22;17730;53.552;9.940;2023-02-28T15:11:11;9.60;51.10
31074;DHT22;17730;53.552;9.940;2023-02-28T15:13:44;9.50;51.60
31074;DHT22;17730;53.552;9.940;2023-02-28T15:19:14;9.30;52.20
31074;DHT22;17730;53.552;9.940;2023-02-28T15:21:43;9.10;52.90
31074;DHT22;17730;53.552;9.940;2023-02-28T15:26:57;9.00;53.30
31074;DHT22;17730;53.552;9.940;2023-02-28T15:29:24;9.00;53.60
31074;DHT22;17730;53.552;9.940;2023-02-28T15:31:52;8.90;53.70
31074;DHT22;17730;53.552;9.940;2023-02-28T15:34:21;8.90;54.10
31074;DHT22;17730;53.552;9.940;2023-02-28T15:36:47;8.80;54.40
31074;DHT22;17730;53.552;9.940;2023-02-28T15:39:23;8.70;54.50
31074;DHT22;17730;53.552;9.940;2023-02-28T15:41:49;8.70;54.80
31074;DHT22;17730;53.552;9.940;2023-02-28T15:46:42;8.60;54.90
31074;DHT22;17730;53.552;9.940;2023-02-28T15:49:19;8.50;55.30
31074;DHT22;17730;53.552;9.940;2023-02-28T15:51:45;8.40;55.30
31074;DHT22;17730;53.552;9.940;2023-02-28T15:54:12;8.30;55.50
31074;DHT22;17730;53.552;9.940;2023-02-28T15:56:43;8.20;56.10
31074;DHT22;17730;53.552;9.940;2023-02-28T15:59:15;8.20;56.50
31074;DHT22;17730;53.552;9.940;2023-02-28T16:01:41;8.10;57.20
31074;DHT22;17730;53.552;9.940;2023-02-28T16:04:18;8.00;57.50
31074;DHT22;17730;53.552;9.940;2023-02-28T16:07:03;7.90;57.10
31074;DHT22;17730;53.552;9.940;2023-02-28T16:09:28;7.70;57.60
31074;DHT22;17730;53.552;9.940;2023-02-28T16:11:56;7.60;58.00
31074;DHT22;17730;53.552;9.940;2023-02-28T16:14:25;7.60;58.50
31074;DHT22;17730;53.552;9.940;2023-02-28T16:16:53;7.50;58.90
31074;DHT22;17730;53.552;9.940;2023-02-28T16:19:19;7.40;59.40
31074;DHT22;17730;53.552;9.940;2023-02-28T16:21:45;7.30;59.20
31074;DHT22;17730;53.552;9.940;2023-02-28T16:24:11;7.20;59.10
31074;DHT22;17730;53.552;9.940;2023-02-28T16:26:37;7.10;59.50
31074;DHT22;17730;53.552;9.940;2023-02-28T16:29:04;7.00;60.10
31074;DHT22;17730;53.552;9.940;2023-02-28T16:31:30;7.00;60.80
31074;DHT22;17730;53.552;9.940;2023-02-28T16:33:56;6.90;61.10
31074;DHT22;17730;53.552;9.940;2023-02-28T16:36:22;6.80;61.70
31074;DHT22;17730;53.552;9.940;2023-02-28T16:38:50;6.70;62.30
31074;DHT22;17730;53.552;9.940;2023-02-28T16:41:20;6.50;62.30
31074;DHT22;17730;53.552;9.940;2023-02-28T16:43:46;6.40;63.00
31074;DHT22;17730;53.552;9.940;2023-02-28T16:46:13;6.20;63.50
31074;DHT22;17730;53.552;9.940;2023-02-28T16:48:39;6.20;64.70
31074;DHT22;17730;53.552;9.940;2023-02-28T16:51:06;6.10;65.60
31074;DHT22;17730;53.552;9.940;2023-02-28T16:53:31;6.00;65.60
31074;DHT22;17730;53.552;9.940;2023-02-28T16:55:57;6.00;66.80
31074;DHT22;17730;53.552;9.940;2023-02-28T16:58:23;6.00;67.30
31074;DHT22;17730;53.552;9.940;2023-02-28T17:00:50;5.80;67.80
31074;DHT22;17730;53.552;9.940;2023-02-28T17:03:20;5.80;68.80
31074;DHT22;17730;53.552;9.940;2023-02-28T17:05:47;5.70;69.70
31074;DHT22;17730;53.552;9.940;2023-02-28T17:08:12;5.70;70.60
31074;DHT22;17730;53.552;9.940;2023-02-28T17:10:38;5.60;71.40
31074;DHT22;17730;53.552;9.940;2023-02-28T17:13:03;5.50;72.00
31074;DHT22;17730;53.552;9.940;2023-02-28T17:15:29;5.40;73.00
31074;DHT22;17730;53.552;9.940;2023-02-28T17:17:55;5.40;74.50
31074;DHT22;17730;53.552;9.940;2023-02-28T17:20:21;5.40;75.40
31074;DHT22;17730;53.552;9.940;2023-02-28T17:22:54;5.30;76.40
31074;DHT22;17730;53.552;9.940;2023-02-28T17:25:20;5.20;77.70
31074;DHT22;17730;53.552;9.940;2023-02-28T17:27:46;5.20;78.90
31074;DHT22;17730;53.552;9.940;2023-02-28T17:32:41;5.00;81.50
31074;DHT22;17730;53.552;9.940;2023-02-28T17:35:07;4.90;83.20
31074;DHT22;17730;53.552;9.940;2023-02-28T17:37:32;4.90;84.60
31074;DHT22;17730;53.552;9.940;2023-02-28T17:39:58;4.80;85.70
31074;DHT22;17730;53.552;9.940;2023-02-28T17:42:23;4.80;86.60
31074;DHT22;17730;53.552;9.940;2023-02-28T17:44:48;4.70;88.10
31074;DHT22;17730;53.552;9.940;2023-02-28T17:47:14;4.70;89.30
31074;DHT22;17730;53.552;9.940;2023-02-28T17:49:39;4.70;90.00
31074;DHT22;17730;53.552;9.940;2023-02-28T17:52:05;4.70;90.20
31074;DHT22;17730;53.552;9.940;2023-02-28T17:54:30;4.70;90.80
31074;DHT22;17730;53.552;9.940;2023-02-28T17:56:56;4.70;91.20
31074;DHT22;17730;53.552;9.940;2023-02-28T17:59:21;4.70;91.40
31074;DHT22;17730;53.552;9.940;2023-02-28T18:01:47;4.70;91.80
31074;DHT22;17730;53.552;9.940;2023-02-28T18:04:13;4.70;92.10
31074;DHT22;17730;53.552;9.940;2023-02-28T18:06:42;4.80;92.40
31074;DHT22;17730;53.552;9.940;2023-02-28T18:09:15;4.80;92.60
31074;DHT22;17730;53.552;9.940;2023-02-28T18:11:41;4.80;92.80